Weather at Bachaquero Airport [CLOSED]

Public forecast

Using degrees Celsius for public forecast. Weather courtesy of forecast.io.

Closest aviation weather report (METAR) to Bachaquero Airport

Closest report is Dr. Antonio Nicolás Briceño Airport, 49.5 nm (91.7 km) SE.

2024/07/19 14:03 (retrieved 54 minutes ago)

SVVL 191403Z AUTO ///01KT NCD ///// Q////

Closest aviation forecast (TAF) to Bachaquero Airport

Closest forecast is La Chinita International Airport, 50.6 nm (93.8 km) NW.

2024/07/19 12:12 (retrieved 3 hours ago)

TAF SVMC 191000Z 1912/2012 00000KT 8000 TSDZ OVC013CB TX33/1918Z TN25/1908Z TEMPO 1913/1917 14005KT 9000 DZ BKN013 FM191800 16008KT 9999 SCT013 SCT060